createdAt,value
2017-06-06T00:00:23.113Z,19.08
2017-06-06T00:01:03.617Z,19
2017-06-06T00:01:44.131Z,19.07
2017-06-06T00:02:24.678Z,19.04
2017-06-06T00:03:05.193Z,19.07
2017-06-06T00:03:45.699Z,19.06
2017-06-06T00:04:26.252Z,19.04
2017-06-06T00:05:06.809Z,18.95
2017-06-06T00:05:47.322Z,18.98
2017-06-06T00:06:27.845Z,19.1
2017-06-06T00:07:08.324Z,19.06
2017-06-06T00:07:48.845Z,19.06
2017-06-06T00:08:29.357Z,18.99
2017-06-06T00:09:09.878Z,18.99
2017-06-06T00:09:50.398Z,18.95
2017-06-06T00:10:30.879Z,18.99
2017-06-06T00:11:11.396Z,18.92
2017-06-06T00:11:51.913Z,18.99
2017-06-06T00:12:32.453Z,18.94
2017-06-06T00:13:12.969Z,18.94
2017-06-06T00:13:53.487Z,18.81
2017-06-06T00:14:34.000Z,18.92
2017-06-06T00:15:14.513Z,18.84
2017-06-06T00:15:55.022Z,18.84
2017-06-06T00:16:35.571Z,18.82
2017-06-06T00:17:16.062Z,18.88
2017-06-06T00:17:56.590Z,18.88
2017-06-06T00:18:37.102Z,18.78
2017-06-06T00:19:17.611Z,18.84
2017-06-06T00:19:58.140Z,18.87
2017-06-06T00:20:38.639Z,18.98
2017-06-06T00:21:19.133Z,18.92
2017-06-06T00:21:59.621Z,18.99
2017-06-06T00:22:40.147Z,18.94
2017-06-06T00:23:20.684Z,18.99
2017-06-06T00:24:01.193Z,18.91
2017-06-06T00:24:41.713Z,18.87
2017-06-06T00:25:22.225Z,18.85
2017-06-06T00:26:02.706Z,18.92
2017-06-06T00:26:43.224Z,18.81
2017-06-06T00:27:23.735Z,18.88
2017-06-06T00:28:04.255Z,18.84
2017-06-06T00:28:44.772Z,18.82
2017-06-06T00:29:25.285Z,18.9
2017-06-06T00:30:05.794Z,18.85
2017-06-06T00:30:46.277Z,18.88
2017-06-06T00:31:26.768Z,18.82
2017-06-06T00:32:07.271Z,18.73
2017-06-06T00:32:47.775Z,18.87
2017-06-06T00:33:28.279Z,18.78
2017-06-06T00:34:08.793Z,18.73
2017-06-06T00:34:49.307Z,18.85
2017-06-06T00:35:29.809Z,18.87
2017-06-06T00:36:10.322Z,18.69
2017-06-06T00:36:50.825Z,18.87
2017-06-06T00:37:31.291Z,18.78
2017-06-06T00:38:11.805Z,18.81
2017-06-06T00:38:52.279Z,18.82
2017-06-06T00:39:32.769Z,18.85
2017-06-06T00:40:13.253Z,18.69
2017-06-06T00:40:53.792Z,18.75
2017-06-06T00:41:34.251Z,18.76
2017-06-06T00:42:14.725Z,18.82
2017-06-06T00:42:55.288Z,18.76
2017-06-06T00:43:35.780Z,18.78
2017-06-06T00:44:16.270Z,18.76
2017-06-06T00:44:56.787Z,18.81
2017-06-06T00:45:37.303Z,18.78
2017-06-06T00:46:17.812Z,18.78
2017-06-06T00:46:58.345Z,18.75
2017-06-06T00:47:38.905Z,18.73
2017-06-06T00:48:19.415Z,18.7
2017-06-06T00:48:59.940Z,18.78
2017-06-06T00:49:40.462Z,18.73
2017-06-06T00:50:20.999Z,18.69
2017-06-06T00:51:01.528Z,18.73
2017-06-06T00:51:42.058Z,18.7
2017-06-06T00:52:22.594Z,18.76
2017-06-06T00:53:03.092Z,18.75
2017-06-06T00:53:43.613Z,18.72
2017-06-06T00:54:24.107Z,18.76
2017-06-06T00:55:04.621Z,18.76
2017-06-06T00:55:45.108Z,18.7
2017-06-06T00:56:25.612Z,18.7
2017-06-06T00:57:06.107Z,18.72
2017-06-06T00:57:46.593Z,18.63
2017-06-06T00:58:27.181Z,18.73
2017-06-06T00:59:07.711Z,18.73
2017-06-06T00:59:48.226Z,18.7
2017-06-06T01:00:28.746Z,18.63
2017-06-06T01:01:09.279Z,18.69
2017-06-06T01:01:49.809Z,18.72
2017-06-06T01:02:30.359Z,18.76
2017-06-06T01:03:10.875Z,18.69
2017-06-06T01:03:51.383Z,18.7
2017-06-06T01:04:31.938Z,18.62
2017-06-06T01:05:12.463Z,18.62
2017-06-06T01:05:52.969Z,18.67
2017-06-06T01:06:33.488Z,18.65
2017-06-06T01:07:14.009Z,18.62
2017-06-06T01:07:54.503Z,18.6
2017-06-06T01:08:35.043Z,18.7
2017-06-06T01:09:15.557Z,18.67
2017-06-06T01:09:56.040Z,18.65
2017-06-06T01:10:36.569Z,18.57
2017-06-06T01:11:17.092Z,18.58
2017-06-06T01:11:57.614Z,18.65
2017-06-06T01:12:38.144Z,18.65
2017-06-06T01:13:18.655Z,18.65
2017-06-06T01:13:59.148Z,18.63
2017-06-06T01:14:39.676Z,18.62
2017-06-06T01:15:20.198Z,18.63
2017-06-06T01:16:00.719Z,18.65
2017-06-06T01:16:41.275Z,18.62
2017-06-06T01:17:21.762Z,18.58
2017-06-06T01:18:02.221Z,18.58
2017-06-06T01:18:42.734Z,18.66
2017-06-06T01:19:23.263Z,18.65
2017-06-06T01:20:03.760Z,18.62
2017-06-06T01:20:44.297Z,18.55
2017-06-06T01:21:24.801Z,18.66
2017-06-06T01:22:05.335Z,18.62
2017-06-06T01:22:45.830Z,18.66
2017-06-06T01:23:26.351Z,18.62
2017-06-06T01:24:06.880Z,18.66
2017-06-06T01:24:47.401Z,18.63
2017-06-06T01:25:27.941Z,18.6
2017-06-06T01:26:08.450Z,18.58
2017-06-06T01:26:48.983Z,18.63
2017-06-06T01:27:29.503Z,18.55
2017-06-06T01:28:10.072Z,18.57
2017-06-06T01:28:50.598Z,18.55
2017-06-06T01:29:31.125Z,18.54
2017-06-06T01:30:11.611Z,18.6
2017-06-06T01:30:52.154Z,18.55
2017-06-06T01:31:32.604Z,18.58
2017-06-06T01:32:13.234Z,18.55
2017-06-06T01:32:53.657Z,18.6
2017-06-06T01:33:34.183Z,18.6
2017-06-06T01:34:14.705Z,18.62
2017-06-06T01:34:55.228Z,18.62
2017-06-06T01:35:35.755Z,18.66
2017-06-06T01:36:16.274Z,18.65
2017-06-06T01:36:56.787Z,18.66
2017-06-06T01:37:37.310Z,18.65
2017-06-06T01:38:17.829Z,18.62
2017-06-06T01:38:58.347Z,18.66
2017-06-06T01:39:38.867Z,18.6
2017-06-06T01:40:19.401Z,18.66
2017-06-06T01:40:59.923Z,18.55
2017-06-06T01:41:40.453Z,18.62
2017-06-06T01:42:20.992Z,18.75
2017-06-06T01:43:01.508Z,18.65
2017-06-06T01:43:42.036Z,18.69
2017-06-06T01:44:22.564Z,18.66
2017-06-06T01:45:03.091Z,18.67
2017-06-06T01:45:43.606Z,18.7
2017-06-06T01:46:24.128Z,18.57
2017-06-06T01:47:04.646Z,18.73
2017-06-06T01:47:45.167Z,18.63
2017-06-06T01:48:25.691Z,18.7
2017-06-06T01:49:06.231Z,18.75
2017-06-06T01:49:46.761Z,18.58
2017-06-06T01:50:27.282Z,18.55
2017-06-06T01:51:07.809Z,18.55
2017-06-06T01:51:48.333Z,18.48
2017-06-06T01:52:28.859Z,18.5
2017-06-06T01:53:09.380Z,18.47
2017-06-06T01:53:49.900Z,18.58
2017-06-06T01:54:30.412Z,18.55
2017-06-06T01:55:10.941Z,18.54
2017-06-06T01:55:51.460Z,18.54
2017-06-06T01:56:31.987Z,18.45
2017-06-06T01:57:12.508Z,18.29
2017-06-06T01:57:53.039Z,18.32
2017-06-06T01:58:33.555Z,18.27
2017-06-06T01:59:14.080Z,18.27
2017-06-06T01:59:54.600Z,18.27
2017-06-06T02:00:35.127Z,18.37
2017-06-06T02:01:15.656Z,18.36
2017-06-06T02:01:56.181Z,18.33
2017-06-06T02:02:36.714Z,18.32
2017-06-06T02:03:17.246Z,18.27
2017-06-06T02:03:57.763Z,18.26
2017-06-06T02:04:38.276Z,18.32
2017-06-06T02:05:18.814Z,18.36
2017-06-06T02:05:59.341Z,18.32
2017-06-06T02:06:39.866Z,18.32
2017-06-06T02:07:20.386Z,18.35
2017-06-06T02:08:00.974Z,18.26
2017-06-06T02:08:41.478Z,18.3
2017-06-06T02:09:21.988Z,18.35
2017-06-06T02:10:02.512Z,18.35
2017-06-06T02:10:43.023Z,18.32
2017-06-06T02:11:23.548Z,18.36
2017-06-06T02:12:04.064Z,18.41
2017-06-06T02:12:44.658Z,18.48
2017-06-06T02:13:25.163Z,18.42
2017-06-06T02:14:05.673Z,18.44
2017-06-06T02:14:46.189Z,18.41
2017-06-06T02:15:26.708Z,18.48
2017-06-06T02:16:07.214Z,18.42
2017-06-06T02:16:47.732Z,18.5
2017-06-06T02:17:28.244Z,18.47
2017-06-06T02:18:08.798Z,18.45
2017-06-06T02:18:49.313Z,18.37
2017-06-06T02:19:29.826Z,18.37
2017-06-06T02:20:10.347Z,18.57
2017-06-06T02:20:50.850Z,18.41
2017-06-06T02:21:31.404Z,18.55
2017-06-06T02:22:11.894Z,18.41
2017-06-06T02:22:52.480Z,18.47
2017-06-06T02:23:32.994Z,18.3
2017-06-06T02:24:13.513Z,18.33
2017-06-06T02:24:54.026Z,18.29
2017-06-06T02:25:34.547Z,18.32
2017-06-06T02:26:15.150Z,18.36
2017-06-06T02:26:55.675Z,18.42
2017-06-06T02:27:36.200Z,18.42
2017-06-06T02:28:16.723Z,18.36
2017-06-06T02:28:57.243Z,18.47
2017-06-06T02:29:37.783Z,18.44
2017-06-06T02:30:18.275Z,18.42
2017-06-06T02:30:58.784Z,18.45
2017-06-06T02:31:39.241Z,18.41
2017-06-06T02:32:19.747Z,18.41
2017-06-06T02:33:00.236Z,18.42
2017-06-06T02:33:40.707Z,18.39
2017-06-06T02:34:21.234Z,18.44
2017-06-06T02:35:01.725Z,18.29
2017-06-06T02:35:42.195Z,18.41
2017-06-06T02:36:22.694Z,18.42
2017-06-06T02:37:03.213Z,18.36
2017-06-06T02:37:43.677Z,18.3
2017-06-06T02:38:24.160Z,18.32
2017-06-06T02:39:04.654Z,18.36
2017-06-06T02:39:45.133Z,18.36
2017-06-06T02:40:25.633Z,18.39
2017-06-06T02:41:06.132Z,18.45
2017-06-06T02:41:46.633Z,18.41
2017-06-06T02:42:27.128Z,18.41
2017-06-06T02:43:07.618Z,18.37
2017-06-06T02:43:48.079Z,18.42
2017-06-06T02:44:28.554Z,18.41
2017-06-06T02:45:09.072Z,18.41
2017-06-06T02:45:49.571Z,18.41
2017-06-06T02:46:30.080Z,18.45
2017-06-06T02:47:10.595Z,18.44
2017-06-06T02:47:51.056Z,18.47
2017-06-06T02:48:31.604Z,18.45
2017-06-06T02:49:12.117Z,18.39
2017-06-06T02:49:52.613Z,18.47
2017-06-06T02:50:33.075Z,18.41
2017-06-06T02:51:13.549Z,18.41
2017-06-06T02:51:54.092Z,18.45
2017-06-06T02:52:34.580Z,18.48
2017-06-06T02:53:15.028Z,18.41
2017-06-06T02:53:55.559Z,18.42
2017-06-06T02:54:36.028Z,18.45
2017-06-06T02:55:16.514Z,18.45
2017-06-06T02:55:57.025Z,18.48
2017-06-06T02:56:37.514Z,18.39
2017-06-06T02:57:18.028Z,18.44
2017-06-06T02:57:58.515Z,18.41
2017-06-06T02:58:39.035Z,18.36
2017-06-06T02:59:19.494Z,18.3
2017-06-06T03:00:00.038Z,18.25
2017-06-06T03:00:40.479Z,18.39
2017-06-06T03:01:20.993Z,18.35
2017-06-06T03:02:01.478Z,18.33
2017-06-06T03:02:41.961Z,18.32
2017-06-06T03:03:22.480Z,18.41
2017-06-06T03:04:02.945Z,18.3
2017-06-06T03:04:43.466Z,18.44
2017-06-06T03:05:24.003Z,18.3
2017-06-06T03:06:04.480Z,18.39
2017-06-06T03:06:45.002Z,18.37
2017-06-06T03:07:25.480Z,18.45
2017-06-06T03:08:05.965Z,18.41
2017-06-06T03:08:46.501Z,18.45
2017-06-06T03:09:27.007Z,18.39
2017-06-06T03:10:07.495Z,18.32
2017-06-06T03:10:47.989Z,18.3
2017-06-06T03:11:28.500Z,18.35
2017-06-06T03:12:09.028Z,18.37
2017-06-06T03:12:49.558Z,18.35
2017-06-06T03:13:30.079Z,18.3
2017-06-06T03:14:10.598Z,18.32
2017-06-06T03:14:51.147Z,18.45
2017-06-06T03:15:31.675Z,18.36
2017-06-06T03:16:12.182Z,18.33
2017-06-06T03:16:52.703Z,18.3
2017-06-06T03:17:33.230Z,18.33
2017-06-06T03:18:13.756Z,18.3
2017-06-06T03:18:54.284Z,18.3
2017-06-06T03:19:34.797Z,18.32
2017-06-06T03:20:15.323Z,18.25
2017-06-06T03:20:55.839Z,18.25
2017-06-06T03:21:36.354Z,18.27
2017-06-06T03:22:16.861Z,18.27
2017-06-06T03:22:57.418Z,18.26
2017-06-06T03:23:37.922Z,18.25
2017-06-06T03:24:18.436Z,18.18
2017-06-06T03:24:58.959Z,18.21
2017-06-06T03:25:39.470Z,18.2
2017-06-06T03:26:19.984Z,18.14
2017-06-06T03:27:00.522Z,18.21
2017-06-06T03:27:41.036Z,18.12
2017-06-06T03:28:21.583Z,18.17
2017-06-06T03:29:02.046Z,18.15
2017-06-06T03:29:42.567Z,18.18
2017-06-06T03:30:23.085Z,18.2
2017-06-06T03:31:03.580Z,18.23
2017-06-06T03:31:44.085Z,18.27
2017-06-06T03:32:24.599Z,18.3
2017-06-06T03:33:05.098Z,18.25
2017-06-06T03:33:45.616Z,18.27
2017-06-06T03:34:26.134Z,18.27
2017-06-06T03:35:06.732Z,18.26
2017-06-06T03:35:47.163Z,18.33
2017-06-06T03:36:27.688Z,18.3
2017-06-06T03:37:08.205Z,18.33
2017-06-06T03:37:48.719Z,18.27
2017-06-06T03:38:29.245Z,18.37
2017-06-06T03:39:09.769Z,18.37
2017-06-06T03:39:50.284Z,18.45
2017-06-06T03:40:30.818Z,18.45
2017-06-06T03:41:11.323Z,18.42
2017-06-06T03:41:51.850Z,18.51
2017-06-06T03:42:32.366Z,18.52
2017-06-06T03:43:12.938Z,18.44
2017-06-06T03:43:53.414Z,18.48
2017-06-06T03:44:33.933Z,18.39
2017-06-06T03:45:14.454Z,18.45
2017-06-06T03:45:54.977Z,18.42
2017-06-06T03:46:35.490Z,18.39
2017-06-06T03:47:16.003Z,18.41
2017-06-06T03:47:56.537Z,18.52
2017-06-06T03:48:37.051Z,18.37
2017-06-06T03:49:17.569Z,18.45
2017-06-06T03:49:58.079Z,18.52
2017-06-06T03:50:38.611Z,18.51
2017-06-06T03:51:19.140Z,18.44
2017-06-06T03:51:59.662Z,18.54
2017-06-06T03:52:40.190Z,18.54
2017-06-06T03:53:20.715Z,18.51
2017-06-06T03:54:01.242Z,18.55
2017-06-06T03:54:41.757Z,18.54
2017-06-06T03:55:22.297Z,18.51
2017-06-06T03:56:02.819Z,18.55
2017-06-06T03:56:43.341Z,18.55
2017-06-06T03:57:23.873Z,18.55
2017-06-06T03:58:04.384Z,18.62
2017-06-06T03:58:44.886Z,18.65
2017-06-06T03:59:25.397Z,18.67
2017-06-06T04:00:05.915Z,18.57
2017-06-06T04:00:46.445Z,18.6
2017-06-06T04:01:26.983Z,18.72
2017-06-06T04:02:07.464Z,18.72
2017-06-06T04:02:47.984Z,18.62
2017-06-06T04:03:28.516Z,18.66
2017-06-06T04:04:09.006Z,18.73
2017-06-06T04:04:49.532Z,18.72
2017-06-06T04:05:30.048Z,18.75
2017-06-06T04:06:10.554Z,18.82
2017-06-06T04:06:51.152Z,18.73
2017-06-06T04:07:31.606Z,18.69
2017-06-06T04:08:12.118Z,18.72
2017-06-06T04:08:52.622Z,18.75
2017-06-06T04:09:33.142Z,18.8
2017-06-06T04:10:13.665Z,18.88
2017-06-06T04:10:54.185Z,18.91
2017-06-06T04:11:34.688Z,18.91
2017-06-06T04:12:15.179Z,18.91
2017-06-06T04:12:55.703Z,18.94
2017-06-06T04:13:36.153Z,18.92
2017-06-06T04:14:16.654Z,18.98
2017-06-06T04:14:57.175Z,19.02
2017-06-06T04:15:37.692Z,18.95
2017-06-06T04:16:18.184Z,19.02
2017-06-06T04:16:58.664Z,19.08
2017-06-06T04:17:39.180Z,18.99
2017-06-06T04:18:19.695Z,19.1
2017-06-06T04:19:00.158Z,19.11
2017-06-06T04:19:40.698Z,19.1
2017-06-06T04:20:21.230Z,19.11
2017-06-06T04:21:01.675Z,19.14
2017-06-06T04:21:42.176Z,19.18
2017-06-06T04:22:22.681Z,19.1
2017-06-06T04:23:03.229Z,19.13
2017-06-06T04:23:43.689Z,19.19
2017-06-06T04:24:24.191Z,19.14
2017-06-06T04:25:04.775Z,19.14
2017-06-06T04:25:45.222Z,19.19
2017-06-06T04:26:25.710Z,19.07
2017-06-06T04:27:06.228Z,19.07
2017-06-06T04:27:46.750Z,19.06
2017-06-06T04:28:27.240Z,19.07
2017-06-06T04:29:07.723Z,19.18
2017-06-06T04:29:48.253Z,19.08
2017-06-06T04:30:28.774Z,19.18
2017-06-06T04:31:09.291Z,19.18
2017-06-06T04:31:49.849Z,19.13
2017-06-06T04:32:30.326Z,19.28
2017-06-06T04:33:10.829Z,19.25
2017-06-06T04:33:51.346Z,19.23
2017-06-06T04:34:31.889Z,19.36
2017-06-06T04:35:12.373Z,19.39
2017-06-06T04:35:52.867Z,19.41
2017-06-06T04:36:33.345Z,19.4
2017-06-06T04:37:13.868Z,19.44
2017-06-06T04:37:54.389Z,19.54
2017-06-06T04:38:34.910Z,19.66
2017-06-06T04:39:15.404Z,19.71
2017-06-06T04:39:55.888Z,19.69
2017-06-06T04:40:36.416Z,19.74
2017-06-06T04:41:16.915Z,19.87
2017-06-06T04:41:57.436Z,19.8
2017-06-06T04:42:37.916Z,19.73
2017-06-06T04:43:18.396Z,19.92
2017-06-06T04:43:58.882Z,19.92
2017-06-06T04:44:39.372Z,19.98
2017-06-06T04:45:19.875Z,19.91
2017-06-06T04:46:00.356Z,19.94
2017-06-06T04:46:40.890Z,19.99
2017-06-06T04:47:21.392Z,19.92
2017-06-06T04:48:01.919Z,19.92
2017-06-06T04:48:42.391Z,20.11
2017-06-06T04:49:22.909Z,20.2
2017-06-06T04:50:03.433Z,20.18
2017-06-06T04:50:43.958Z,20.29
2017-06-06T04:51:24.484Z,20.29
2017-06-06T04:52:05.033Z,20.39
2017-06-06T04:52:45.547Z,20.31
2017-06-06T04:53:26.066Z,20.29
2017-06-06T04:54:06.553Z,20.39
2017-06-06T04:54:47.074Z,20.43
2017-06-06T04:55:27.599Z,20.33
2017-06-06T04:56:08.123Z,20.26
2017-06-06T04:56:48.628Z,19.86
2017-06-06T04:57:29.118Z,20.05
2017-06-06T04:58:09.645Z,20.24
2017-06-06T04:58:50.159Z,20.31
2017-06-06T04:59:30.678Z,20.28
2017-06-06T05:00:11.191Z,20.26
2017-06-06T05:00:51.699Z,20.13
2017-06-06T05:01:32.220Z,20.2
2017-06-06T05:02:12.738Z,20.11
2017-06-06T05:02:53.237Z,20.16
2017-06-06T05:03:33.747Z,20.11
2017-06-06T05:04:14.304Z,19.87
2017-06-06T05:04:54.780Z,19.84
2017-06-06T05:05:35.304Z,19.99
2017-06-06T05:06:15.828Z,19.91
2017-06-06T05:06:56.362Z,19.88
2017-06-06T05:07:36.873Z,19.92
2017-06-06T05:08:17.391Z,19.94
2017-06-06T05:08:57.918Z,19.98
2017-06-06T05:09:38.441Z,20.11
2017-06-06T05:10:18.962Z,20.17
2017-06-06T05:10:59.518Z,20.13
2017-06-06T05:11:40.007Z,19.94
2017-06-06T05:12:20.502Z,19.99
2017-06-06T05:13:01.051Z,19.91
2017-06-06T05:13:41.578Z,19.99
2017-06-06T05:14:22.088Z,19.88
2017-06-06T05:15:02.631Z,19.92
2017-06-06T05:15:43.166Z,19.92
2017-06-06T05:16:23.685Z,19.95
2017-06-06T05:17:04.208Z,20.02
2017-06-06T05:17:44.740Z,20.1
2017-06-06T05:18:25.269Z,20.06
2017-06-06T05:19:05.775Z,20.14
2017-06-06T05:19:46.284Z,20.11
2017-06-06T05:20:26.795Z,20.2
2017-06-06T05:21:07.327Z,20.2
2017-06-06T05:21:47.857Z,20.2
2017-06-06T05:22:28.379Z,20.26
2017-06-06T05:23:08.903Z,20.31
2017-06-06T05:23:49.427Z,20.36
2017-06-06T05:24:29.932Z,20.39
2017-06-06T05:25:10.448Z,20.47
2017-06-06T05:25:50.976Z,20.42
2017-06-06T05:26:31.513Z,20.51
2017-06-06T05:27:12.035Z,20.73
2017-06-06T05:27:52.574Z,20.98
2017-06-06T05:28:33.139Z,21.1
2017-06-06T05:29:13.628Z,21.1
2017-06-06T05:29:54.184Z,21.09
2017-06-06T05:30:34.824Z,20.99
2017-06-06T05:31:15.409Z,21.07
2017-06-06T05:31:55.936Z,21.03
2017-06-06T05:32:36.592Z,20.8
2017-06-06T05:33:17.123Z,20.87
2017-06-06T05:33:57.655Z,20.69
2017-06-06T05:34:38.173Z,20.66
2017-06-06T05:35:18.689Z,20.57
2017-06-06T05:35:59.165Z,20.64
2017-06-06T05:36:39.714Z,20.58
2017-06-06T05:37:20.225Z,20.58
2017-06-06T05:38:00.727Z,20.61
2017-06-06T05:38:41.280Z,20.66
2017-06-06T05:39:21.943Z,20.69
2017-06-06T05:40:02.467Z,20.73
2017-06-06T05:40:42.982Z,20.7
2017-06-06T05:41:23.525Z,20.61
2017-06-06T05:42:04.010Z,20.57
2017-06-06T05:42:44.536Z,20.72
2017-06-06T05:43:25.060Z,20.79
2017-06-06T05:44:05.588Z,20.82
2017-06-06T05:44:46.200Z,20.88
2017-06-06T05:45:26.714Z,20.94
2017-06-06T05:46:08.002Z,20.95
2017-06-06T05:47:47.692Z,20.98
2017-06-06T05:48:28.285Z,21.06
2017-06-06T05:49:08.806Z,21.01
2017-06-06T05:49:49.330Z,21.01
2017-06-06T05:50:29.848Z,21.04
2017-06-06T05:51:10.375Z,20.99
2017-06-06T05:51:50.899Z,21.06
2017-06-06T05:52:31.418Z,21.07
2017-06-06T05:53:11.940Z,21.24
2017-06-06T05:53:52.459Z,21.59
2017-06-06T05:54:33.203Z,21.9
2017-06-06T05:56:11.102Z,22.45
2017-06-06T05:56:51.603Z,22.6
2017-06-06T05:57:32.121Z,22.51
2017-06-06T05:58:12.650Z,22.61
2017-06-06T05:58:53.199Z,22.97
2017-06-06T05:59:33.756Z,23.23
2017-06-06T06:00:14.296Z,23.5
2017-06-06T06:00:54.813Z,23.57
2017-06-06T06:01:35.366Z,23.68
2017-06-06T06:02:15.893Z,23.9
2017-06-06T06:02:56.495Z,23.87
2017-06-06T06:03:37.018Z,24.02
2017-06-06T06:04:17.540Z,24.08
2017-06-06T06:04:58.435Z,23.94
2017-06-06T06:05:38.958Z,23.93
2017-06-06T06:06:19.476Z,24.06
2017-06-06T06:06:59.987Z,23.95
2017-06-06T06:07:40.533Z,23.91
2017-06-06T06:08:21.062Z,24.02
2017-06-06T06:09:01.511Z,23.88
2017-06-06T06:09:42.030Z,23.85
2017-06-06T06:10:22.554Z,23.88
2017-06-06T06:11:03.180Z,23.85
2017-06-06T06:11:43.660Z,23.9
2017-06-06T06:12:24.146Z,23.84
2017-06-06T06:13:04.682Z,23.79
2017-06-06T06:13:45.183Z,23.88
2017-06-06T06:14:25.628Z,23.85
2017-06-06T06:16:38.955Z,24.32
2017-06-06T06:17:19.493Z,24.5
2017-06-06T06:18:00.012Z,24.65
2017-06-06T06:18:40.540Z,24.35
2017-06-06T06:19:21.058Z,24.4
2017-06-06T06:20:01.586Z,24.39
2017-06-06T06:20:42.080Z,24.28
2017-06-06T06:21:22.629Z,24.06
2017-06-06T06:22:03.147Z,23.88
2017-06-06T06:22:43.636Z,23.75
2017-06-06T06:24:36.704Z,23.54
2017-06-06T06:25:20.319Z,23.48
2017-06-06T06:26:00.480Z,23.38
2017-06-06T06:26:41.005Z,23.48
2017-06-06T06:27:21.519Z,23.38
2017-06-06T06:28:02.040Z,23.36
2017-06-06T06:28:42.569Z,23.31
2017-06-06T06:29:23.052Z,23.31
2017-06-06T06:30:03.577Z,23.27
2017-06-06T06:30:44.215Z,23.23
2017-06-06T06:31:24.726Z,23.16
2017-06-06T06:32:05.240Z,23.12
2017-06-06T06:32:45.846Z,23.02
2017-06-06T06:33:26.333Z,22.91
2017-06-06T06:34:06.899Z,22.91
2017-06-06T06:34:47.447Z,22.76
2017-06-06T06:35:27.975Z,22.85
2017-06-06T06:36:08.501Z,22.76
2017-06-06T06:36:49.056Z,22.7
2017-06-06T06:37:29.569Z,22.76
2017-06-06T06:38:10.097Z,22.67
2017-06-06T06:39:59.124Z,22.76
2017-06-06T06:40:39.649Z,22.72
2017-06-06T06:41:20.151Z,22.65
2017-06-06T06:42:00.675Z,22.76
2017-06-06T06:42:41.204Z,22.8
2017-06-06T06:43:21.752Z,22.8
2017-06-06T06:44:02.270Z,22.94
2017-06-06T06:44:42.785Z,22.98
2017-06-06T06:45:23.349Z,23.01
2017-06-06T06:46:03.857Z,22.98
2017-06-06T06:46:44.368Z,22.77
2017-06-06T06:47:24.898Z,22.65
2017-06-06T06:48:05.408Z,22.67
2017-06-06T06:48:45.939Z,22.67
2017-06-06T06:49:26.460Z,22.73
2017-06-06T06:50:07.071Z,22.95
2017-06-06T06:50:47.600Z,22.97
2017-06-06T06:51:28.153Z,23.05
2017-06-06T06:52:08.646Z,23.12
2017-06-06T06:52:49.161Z,23.13
2017-06-06T06:53:29.676Z,23.15
2017-06-06T06:54:10.207Z,23.13
2017-06-06T06:54:50.739Z,23.23
2017-06-06T06:55:31.274Z,23.25
2017-06-06T06:56:11.792Z,23.4
2017-06-06T06:56:52.346Z,23.48
2017-06-06T06:57:32.828Z,23.38
2017-06-06T06:58:13.299Z,23.42
2017-06-06T06:58:53.806Z,23.35
2017-06-06T06:59:34.323Z,23.4
2017-06-06T07:00:14.831Z,23.54
2017-06-06T07:00:55.364Z,23.75
2017-06-06T07:01:35.848Z,23.69
2017-06-06T07:02:16.372Z,23.7
2017-06-06T07:02:56.898Z,23.73
2017-06-06T07:03:37.409Z,23.72
2017-06-06T07:04:17.911Z,23.73
2017-06-06T07:04:58.424Z,23.75
2017-06-06T07:05:38.934Z,23.9
2017-06-06T07:06:19.468Z,23.95
2017-06-06T07:06:59.986Z,24.1
2017-06-06T07:07:40.477Z,24.27
2017-06-06T07:08:20.981Z,24.28
2017-06-06T07:09:01.508Z,24.32
2017-06-06T07:09:42.026Z,24.35
2017-06-06T07:10:22.552Z,24.35
2017-06-06T07:11:03.015Z,24.4
2017-06-06T07:11:43.504Z,24.42
2017-06-06T07:12:24.031Z,24.34
2017-06-06T07:13:04.574Z,24.24
2017-06-06T07:13:45.016Z,24.12
2017-06-06T07:14:25.536Z,24.06
2017-06-06T07:15:06.035Z,24.13
2017-06-06T07:15:46.534Z,24.18
2017-06-06T07:16:27.026Z,24.05
2017-06-06T07:17:07.525Z,24.05
2017-06-06T07:17:48.037Z,24.08
2017-06-06T07:18:28.529Z,23.87
2017-06-06T07:19:09.029Z,23.87
2017-06-06T07:19:49.564Z,23.91
2017-06-06T07:20:30.086Z,23.87
2017-06-06T07:21:10.594Z,23.87
2017-06-06T07:21:51.124Z,23.79
2017-06-06T07:22:31.644Z,23.83
2017-06-06T07:23:12.169Z,23.83
2017-06-06T07:23:52.689Z,23.73
2017-06-06T07:24:33.188Z,23.75
2017-06-06T07:25:13.714Z,23.68
2017-06-06T07:25:54.232Z,23.55
2017-06-06T07:26:34.761Z,23.51
2017-06-06T07:27:15.264Z,23.36
2017-06-06T07:27:55.815Z,23.2
2017-06-06T07:28:36.331Z,23.13
2017-06-06T07:29:16.911Z,22.97
2017-06-06T07:29:57.405Z,22.79
2017-06-06T07:30:37.921Z,22.64
2017-06-06T07:31:18.461Z,22.58
2017-06-06T07:31:58.979Z,22.6
2017-06-06T07:32:39.542Z,22.54
2017-06-06T07:33:20.072Z,22.6
2017-06-06T07:34:00.607Z,22.6
2017-06-06T07:34:41.112Z,22.72
2017-06-06T07:35:21.627Z,22.79
2017-06-06T07:36:02.163Z,22.9
2017-06-06T07:36:42.674Z,23.15
2017-06-06T07:37:23.192Z,23.09
2017-06-06T07:38:03.725Z,23.09
2017-06-06T07:38:44.248Z,23.1
2017-06-06T07:39:24.881Z,23.1
2017-06-06T07:40:05.405Z,23.15
2017-06-06T07:40:45.923Z,23.13
2017-06-06T07:41:26.436Z,22.98
2017-06-06T07:42:06.931Z,23.01
2017-06-06T07:42:47.523Z,22.9
2017-06-06T07:43:27.987Z,22.97
2017-06-06T07:44:08.514Z,23.01
2017-06-06T07:44:48.987Z,22.98
2017-06-06T07:45:29.521Z,23.12
2017-06-06T07:46:10.038Z,23.17
2017-06-06T07:46:50.519Z,23.28
2017-06-06T07:47:31.082Z,23.27
2017-06-06T07:48:11.604Z,23.28
2017-06-06T07:48:52.082Z,23.38
2017-06-06T07:49:32.575Z,23.33
2017-06-06T07:50:13.103Z,23.39
2017-06-06T07:50:53.588Z,23.43
2017-06-06T07:51:34.060Z,23.38
2017-06-06T07:52:14.554Z,23.43
2017-06-06T07:52:55.081Z,23.31
2017-06-06T07:53:35.530Z,23.35
2017-06-06T07:54:16.033Z,23.35
2017-06-06T07:54:56.524Z,23.35
2017-06-06T07:55:37.026Z,23.35
2017-06-06T07:56:17.658Z,23.46
2017-06-06T07:56:58.087Z,23.47
2017-06-06T07:57:38.557Z,23.36
2017-06-06T07:58:19.015Z,23.42
2017-06-06T07:58:59.523Z,23.42
2017-06-06T07:59:40.011Z,23.55
2017-06-06T08:00:20.525Z,23.7
2017-06-06T08:01:01.048Z,23.72
2017-06-06T08:01:41.579Z,23.46
2017-06-06T08:02:22.053Z,23.46
2017-06-06T08:03:02.515Z,23.48
2017-06-06T08:03:43.018Z,23.43
2017-06-06T08:04:23.549Z,23.4
2017-06-06T08:05:04.078Z,23.36
2017-06-06T08:05:45.122Z,23.28
2017-06-06T08:06:26.135Z,23.31
2017-06-06T08:07:06.743Z,23.1
2017-06-06T08:07:47.628Z,23.15
2017-06-06T08:08:29.574Z,23.2
2017-06-06T08:09:17.723Z,23.12
2017-06-06T08:09:58.457Z,23.13
2017-06-06T08:10:38.930Z,23.04
2017-06-06T08:11:19.391Z,23.15
2017-06-06T08:12:00.033Z,23.07
2017-06-06T08:12:40.419Z,23.1
2017-06-06T08:13:21.253Z,23.13
2017-06-06T08:14:01.741Z,23.13
2017-06-06T08:14:42.367Z,22.94
2017-06-06T08:15:23.008Z,22.88
2017-06-06T08:16:03.697Z,22.79
2017-06-06T08:16:44.646Z,22.65
2017-06-06T08:17:25.380Z,22.54
2017-06-06T08:18:05.968Z,22.43
2017-06-06T08:18:46.816Z,22.31
2017-06-06T08:19:27.524Z,22.31
2017-06-06T08:20:08.294Z,22.17
2017-06-06T08:20:48.774Z,22.17
2017-06-06T08:21:29.288Z,22.09
2017-06-06T08:22:09.808Z,22.06
2017-06-06T08:22:50.339Z,22
2017-06-06T08:23:30.893Z,21.94
2017-06-06T08:24:11.752Z,21.91
2017-06-06T08:24:52.353Z,21.83
2017-06-06T08:25:32.923Z,21.79
2017-06-06T08:26:13.616Z,21.88
2017-06-06T08:26:54.107Z,21.77
2017-06-06T08:27:34.664Z,21.59
2017-06-06T08:28:15.078Z,21.64
2017-06-06T08:28:55.582Z,21.62
2017-06-06T08:29:36.127Z,21.52
2017-06-06T08:30:16.589Z,21.43
2017-06-06T08:30:57.204Z,21.32
2017-06-06T08:31:37.656Z,21.21
2017-06-06T08:32:18.215Z,21.34
2017-06-06T08:32:58.685Z,21.49
2017-06-06T08:33:39.340Z,21.54
2017-06-06T08:34:19.758Z,21.62
2017-06-06T08:35:00.664Z,21.59
2017-06-06T08:35:41.347Z,21.67
2017-06-06T08:36:21.846Z,21.71
2017-06-06T08:37:02.309Z,21.67
2017-06-06T08:37:42.979Z,21.49
2017-06-06T08:38:23.506Z,21.54
2017-06-06T08:39:04.038Z,21.61
2017-06-06T08:39:44.612Z,21.67
2017-06-06T08:40:25.252Z,21.72
2017-06-06T08:41:05.789Z,21.72
2017-06-06T08:41:46.186Z,21.94
2017-06-06T08:42:26.685Z,21.99
2017-06-06T08:43:07.294Z,22
2017-06-06T08:43:47.836Z,22
2017-06-06T08:44:28.354Z,21.9
2017-06-06T08:45:09.371Z,21.94
2017-06-06T08:45:49.898Z,22.05
2017-06-06T08:46:30.402Z,22.03
2017-06-06T08:47:11.011Z,22.14
2017-06-06T08:47:51.669Z,22.03
2017-06-06T08:48:32.444Z,21.91
2017-06-06T08:49:12.716Z,21.79
2017-06-06T08:49:53.199Z,21.8